createdAt,value
2019-03-22T00:01:33.256Z,80.17
2019-03-22T00:06:40.930Z,80.34
2019-03-22T00:11:48.799Z,80.34
2019-03-22T00:16:57.574Z,80.77
2019-03-22T00:22:05.871Z,80.77
2019-03-22T00:27:16.781Z,81.19
2019-03-22T00:32:24.310Z,81.36
2019-03-22T00:37:32.029Z,81.43
2019-03-22T00:42:40.249Z,81.43
2019-03-22T00:47:48.076Z,81.35
2019-03-22T00:52:56.302Z,81.37
2019-03-22T00:58:02.903Z,81.35
2019-03-22T01:03:13.371Z,81.26
2019-03-22T01:08:21.561Z,81.08
2019-03-22T01:13:30.448Z,80.98
2019-03-22T01:19:09.776Z,81.09
2019-03-22T01:24:19.620Z,80.66
2019-03-22T01:29:29.090Z,80.54
2019-03-22T01:34:37.578Z,80.54
2019-03-22T01:39:48.066Z,80.58
2019-03-22T01:44:56.043Z,80.58
2019-03-22T01:50:03.868Z,80.50
2019-03-22T01:57:16.041Z,81.17
2019-03-22T02:02:24.470Z,80.41
2019-03-22T02:07:33.563Z,80.14
2019-03-22T02:12:41.513Z,80.14
2019-03-22T02:17:49.767Z,80.23
2019-03-22T02:22:57.769Z,80.21
2019-03-22T02:28:08.434Z,80.14
2019-03-22T02:33:16.103Z,80.16
2019-03-22T02:38:24.261Z,80.12
2019-03-22T02:43:32.434Z,80.08
2019-03-22T02:48:41.576Z,79.91
2019-03-22T02:53:50.074Z,79.65
2019-03-22T02:58:59.364Z,79.65
2019-03-22T03:04:07.627Z,79.80
2019-03-22T03:09:16.214Z,79.80
2019-03-22T03:14:24.556Z,79.80
2019-03-22T03:19:34.432Z,79.82
2019-03-22T03:24:44.244Z,79.78
2019-03-22T03:29:52.051Z,79.62
2019-03-22T03:35:01.638Z,79.74
2019-03-22T03:40:12.640Z,79.64
2019-03-22T03:45:35.932Z,79.73
2019-03-22T03:50:45.225Z,79.73
2019-03-22T03:55:53.457Z,79.59
2019-03-22T04:01:02.374Z,79.67
2019-03-22T04:06:11.677Z,79.67
2019-03-22T04:11:20.017Z,79.49
2019-03-22T04:16:28.052Z,79.69
2019-03-22T04:21:37.438Z,79.69
2019-03-22T04:26:46.122Z,79.54
2019-03-22T04:31:54.585Z,79.57
2019-03-22T04:37:02.532Z,79.04
2019-03-22T04:42:10.421Z,79.04
2019-03-22T04:47:23.657Z,79.50
2019-03-22T04:52:32.565Z,79.68
2019-03-22T04:57:43.364Z,79.61
2019-03-22T05:02:52.572Z,79.61
2019-03-22T05:08:01.918Z,79.54
2019-03-22T05:13:12.581Z,79.53
2019-03-22T05:18:21.580Z,79.45
2019-03-22T05:23:31.044Z,79.46
2019-03-22T05:28:39.620Z,79.46
2019-03-22T05:33:47.443Z,79.24
2019-03-22T05:38:54.252Z,79.24
2019-03-22T05:44:02.036Z,79.16
2019-03-22T05:49:11.570Z,79.11
2019-03-22T05:54:20.322Z,79.40
2019-03-22T05:59:29.022Z,79.40
2019-03-22T06:04:38.591Z,79.37
2019-03-22T06:09:47.441Z,79.24
2019-03-22T06:14:55.559Z,79.24
2019-03-22T06:20:04.553Z,79.31
2019-03-22T06:25:12.568Z,79.23
2019-03-22T06:30:20.434Z,79.16
2019-03-22T06:35:28.589Z,79.16
2019-03-22T06:40:36.580Z,79.12
2019-03-22T06:45:46.056Z,79.12
2019-03-22T06:50:54.414Z,78.91
2019-03-22T06:56:02.111Z,78.91
2019-03-22T07:01:10.490Z,78.95
2019-03-22T07:06:18.844Z,78.65
2019-03-22T07:11:27.560Z,78.79
2019-03-22T07:16:36.245Z,78.64
2019-03-22T07:21:45.576Z,78.64
2019-03-22T07:26:53.573Z,78.65
2019-03-22T07:32:02.617Z,78.60
2019-03-22T07:37:11.097Z,78.48
2019-03-22T07:44:21.337Z,79.81
2019-03-22T07:49:30.337Z,78.43
2019-03-22T07:54:39.332Z,78.02
2019-03-22T07:59:49.432Z,77.99
2019-03-22T08:04:57.564Z,77.87
2019-03-22T08:10:09.080Z,77.73
2019-03-22T08:15:30.597Z,77.73
2019-03-22T08:20:39.630Z,77.19
2019-03-22T08:25:46.422Z,76.99
2019-03-22T08:30:55.168Z,77.12
2019-03-22T08:36:03.240Z,77.09
2019-03-22T08:41:11.421Z,77.09
2019-03-22T08:46:19.910Z,76.92
2019-03-22T08:51:29.838Z,76.70
2019-03-22T08:56:38.103Z,76.74
2019-03-22T09:01:47.341Z,76.52
2019-03-22T09:06:54.003Z,76.38
2019-03-22T09:12:03.242Z,76.14
2019-03-22T09:17:11.081Z,76.05
2019-03-22T09:22:18.889Z,75.91
2019-03-22T09:27:28.083Z,75.81
2019-03-22T09:32:36.582Z,75.63
2019-03-22T09:37:45.253Z,75.60
2019-03-22T09:42:53.861Z,75.60
2019-03-22T09:48:01.689Z,75.68
2019-03-22T09:53:11.548Z,75.29
2019-03-22T09:58:19.564Z,75.29
2019-03-22T10:03:28.062Z,75.05
2019-03-22T10:08:37.256Z,75.05
2019-03-22T10:13:48.373Z,75.30
2019-03-22T10:18:56.649Z,75.32
2019-03-22T10:24:04.663Z,75.08
2019-03-22T10:29:13.567Z,74.85
2019-03-22T10:34:24.817Z,75.04
2019-03-22T10:39:31.637Z,74.86
2019-03-22T10:44:40.070Z,74.65
2019-03-22T10:49:48.335Z,74.65
2019-03-22T10:54:56.241Z,74.33
2019-03-22T11:00:04.918Z,74.34
2019-03-22T11:05:15.110Z,74.14
2019-03-22T11:10:23.907Z,74.28
2019-03-22T11:15:32.276Z,74.29
2019-03-22T11:20:40.068Z,74.23
2019-03-22T11:25:48.554Z,73.83
2019-03-22T11:31:04.547Z,73.33
2019-03-22T11:36:06.107Z,73.33
2019-03-22T11:41:14.256Z,73.64
2019-03-22T11:46:22.209Z,73.56
2019-03-22T11:51:30.106Z,73.30
2019-03-22T11:56:38.264Z,73.15
2019-03-22T12:01:44.844Z,73.01
2019-03-22T12:06:53.838Z,72.62
2019-03-22T12:12:02.246Z,72.49
2019-03-22T12:17:09.288Z,72.73
2019-03-22T12:22:17.053Z,72.94
2019-03-22T12:27:36.109Z,72.69
2019-03-22T12:32:36.254Z,72.39
2019-03-22T12:37:43.484Z,72.32
2019-03-22T12:42:53.582Z,72.57
2019-03-22T12:48:02.848Z,72.26
2019-03-22T12:53:10.670Z,72.26
2019-03-22T12:59:53.562Z,73.81
2019-03-22T13:05:02.118Z,71.14
2019-03-22T13:10:11.249Z,71.14
2019-03-22T13:15:20.246Z,71.55
2019-03-22T13:25:34.405Z,70.49
2019-03-22T13:30:42.637Z,70.91
2019-03-22T13:35:52.585Z,70.83
2019-03-22T13:41:00.585Z,69.81
2019-03-22T13:46:08.733Z,70.58
2019-03-22T13:51:16.637Z,70.58
2019-03-22T13:56:25.451Z,70.34
2019-03-22T14:01:33.466Z,70.34
2019-03-22T14:06:41.576Z,70.42
2019-03-22T14:11:49.417Z,70.16
2019-03-22T14:16:57.245Z,70.16
2019-03-22T14:22:03.639Z,69.96
2019-03-22T14:27:11.653Z,70.05
2019-03-22T14:32:19.641Z,69.77
2019-03-22T14:37:27.844Z,69.77
2019-03-22T14:42:35.660Z,69.77
2019-03-22T14:47:44.419Z,69.97
2019-03-22T14:52:53.532Z,69.97
2019-03-22T14:58:02.049Z,69.92
2019-03-22T15:03:24.759Z,69.92
2019-03-22T15:08:32.655Z,69.55
2019-03-22T15:13:55.565Z,70.13
2019-03-22T15:19:14.223Z,70.22
2019-03-22T15:24:31.571Z,70.22
2019-03-22T15:30:07.650Z,70.87
2019-03-22T15:35:27.984Z,70.87
2019-03-22T15:40:36.259Z,70.66
2019-03-22T15:45:44.065Z,70.56
2019-03-22T15:50:52.355Z,70.59
2019-03-22T15:56:00.254Z,70.65
2019-03-22T16:01:08.693Z,70.61
2019-03-22T16:06:15.497Z,70.46
2019-03-22T16:11:23.044Z,70.46
2019-03-22T16:16:31.259Z,70.42
2019-03-22T16:21:37.958Z,70.04
2019-03-22T16:26:45.917Z,69.63
2019-03-22T16:31:55.061Z,68.89
2019-03-22T16:37:03.699Z,68.85
2019-03-22T16:42:12.076Z,68.78
2019-03-22T16:47:19.927Z,68.78
2019-03-22T16:52:27.842Z,68.77
2019-03-22T16:57:36.564Z,68.78
2019-03-22T17:02:45.590Z,69.36
2019-03-22T17:07:53.578Z,69.90
2019-03-22T17:13:01.709Z,70.93
2019-03-22T17:18:09.851Z,70.93
2019-03-22T17:23:17.671Z,71.56
2019-03-22T17:28:26.607Z,72.78
2019-03-22T17:33:35.229Z,73.39
2019-03-22T17:38:43.577Z,73.39
2019-03-22T17:43:51.562Z,74.10
2019-03-22T17:49:00.565Z,74.48
2019-03-22T17:54:08.637Z,74.83
2019-03-22T17:59:16.666Z,75.07
2019-03-22T18:04:24.642Z,75.07
2019-03-22T18:09:33.698Z,75.98
2019-03-22T18:14:42.106Z,75.98
2019-03-22T18:19:48.532Z,76.22
2019-03-22T18:24:56.412Z,76.54
2019-03-22T18:30:06.585Z,76.78
2019-03-22T18:35:15.259Z,77.32
2019-03-22T18:40:24.233Z,77.32
2019-03-22T18:45:32.253Z,77.67
2019-03-22T18:50:40.914Z,77.87
2019-03-22T18:55:48.918Z,78.12
2019-03-22T19:00:58.233Z,78.39
2019-03-22T19:06:06.106Z,78.43
2019-03-22T19:11:14.765Z,78.63
2019-03-22T19:20:09.245Z,79.23
2019-03-22T19:25:17.580Z,79.02
2019-03-22T19:30:25.553Z,79.23
2019-03-22T19:35:34.248Z,79.23
2019-03-22T19:40:43.124Z,79.42
2019-03-22T19:45:51.035Z,79.61
2019-03-22T19:50:59.488Z,79.69
2019-03-22T19:56:09.414Z,79.86
2019-03-22T20:01:18.861Z,79.82
2019-03-22T20:06:27.489Z,79.92
2019-03-22T20:14:52.253Z,80.39
2019-03-22T20:20:00.691Z,80.17
2019-03-22T20:25:09.581Z,80.16
2019-03-22T20:30:19.431Z,80.42
2019-03-22T20:35:27.459Z,80.42
2019-03-22T20:43:09.675Z,80.87
2019-03-22T20:48:18.554Z,80.64
2019-03-22T20:53:26.586Z,80.64
2019-03-22T20:58:35.424Z,80.52
2019-03-22T21:03:43.418Z,80.52
2019-03-22T21:08:51.396Z,80.68
2019-03-22T21:14:00.067Z,80.62
2019-03-22T21:19:09.059Z,80.63
2019-03-22T21:24:16.928Z,80.63
2019-03-22T21:29:25.076Z,80.76
2019-03-22T21:34:33.254Z,80.81
2019-03-22T21:39:40.023Z,80.87
2019-03-22T21:44:48.240Z,80.85
2019-03-22T21:49:56.287Z,80.83
2019-03-22T21:55:04.057Z,80.88
2019-03-22T22:00:13.452Z,80.99
2019-03-22T22:05:21.260Z,81.04
2019-03-22T22:10:29.661Z,81.01
2019-03-22T22:15:37.603Z,81.01
2019-03-22T22:20:45.854Z,81.20
2019-03-22T22:25:54.460Z,81.20
2019-03-22T22:31:02.456Z,81.08
2019-03-22T22:36:10.430Z,81.23
2019-03-22T22:41:18.070Z,81.24
2019-03-22T22:46:26.588Z,81.19
2019-03-22T22:51:34.858Z,81.29
2019-03-22T22:56:44.246Z,81.29
2019-03-22T23:01:52.418Z,81.30
2019-03-22T23:07:00.588Z,81.32
2019-03-22T23:12:08.589Z,81.50
2019-03-22T23:17:16.591Z,81.28
2019-03-22T23:22:24.646Z,81.27
2019-03-22T23:27:33.723Z,81.27
2019-03-22T23:32:41.671Z,81.26
2019-03-22T23:37:51.259Z,81.43
2019-03-22T23:42:59.264Z,81.43
2019-03-22T23:51:58.125Z,81.98
2019-03-22T23:57:06.390Z,81.55
